If you wish to contribute or participate in the discussions about articles you are invited to join SKYbrary as a registered user

 Actions

La Roche-sur-Yon Airport

From SKYbrary Wiki

LFRI
Airport
ICAO: LFRI – IATA: EDM
Summary
Name La Roche-sur-Yon Airport
Region Europe
Territory France FR.gif
Location , Pays de la Loire
Serving La Roche-sur-yon
Elevation 91.135 m
299 ft
299 ft91.135 m
Type medium airport
Coordinates 46° 42' 7.00" N, 1° 22' 43.05" W
Runways
Designator Length Width Surface ROPS
10/28 1550 m5,085.302 ft
30 m98.425 ft
ASP /


METAR
Observation LFRI 111430Z AUTO 21008KT 9999 RA BKN029/// BKN044/// BKN086/// ///CB 08/06 Q1011 TEMPO VRB20G45KT 2500 TSRAGS
Station La Roche-Sur-Yon
Date/Time 11 December 2019 14:30:00
Wind direction 210°
Wind speed 08 kts
Lowest cloud amount broken clouds
Temperature 8°C
Dew point 6°C
Humidity 87%
QNH 1011 hPa
Weather condition rain